Time;durP1;ratioP1;P1;durP2;ratioP2;P2;SDS_P1;SDS_P2;PMS_P1;PMS_P2;Temp;Humidity;BMP_temperature;BMP_pressure;BME280_temperature;BME280_humidity;BME280_pressure;Samples;Min_cycle;Max_cycle;Signal;HPM_P1;HPM_P2
2021/11/17 02:28:04;;;;;;;55.47;31.92;;;;;;;;;;4934753;29;20032;-47
2021/11/17 02:30:39;;;;;;;55.88;31.13;;;;;;;;;;4940912;29;20036;-48
2021/11/17 02:33:07;;;;;;;57.45;31.77;;;;;;;;;;4953708;29;20035;-47
2021/11/17 02:35:42;;;;;;;71.10;34.60;;;;;;;;;;4969302;28;20041;-48
2021/11/17 02:38:27;;;;;;;57.17;31.08;;;;;;;;;;4992290;28;20437;-48
2021/11/17 02:40:56;;;;;;;58.05;31.85;;;;;;;;;;5004530;28;20037;-48
2021/11/17 02:43:38;;;;;;;59.90;31.30;;;;;;;;;;5053615;28;20016;-48
2021/11/17 02:46:10;;;;;;;63.83;32.60;;;;;;;;;;5053422;28;20452;-48
2021/11/17 02:48:37;;;;;;;56.42;31.63;;;;;;;;;;5053483;28;20021;-48
2021/11/17 02:51:21;;;;;;;53.83;30.90;;;;;;;;;;5010810;28;1224817;-48
2021/11/17 02:53:50;;;;;;;51.65;29.27;;;;;;;;;;5054310;28;20563;-48
2021/11/17 02:56:22;;;;;;;50.70;29.50;;;;;;;;;;5054465;28;20108;-47
2021/11/17 02:58:55;;;;;;;56.85;30.77;;;;;;;;;;5054270;28;20100;-48
2021/11/17 03:01:27;;;;;;;56.17;30.70;;;;;;;;;;5054396;28;20357;-48
2021/11/17 03:04:02;;;;;;;52.30;30.10;;;;;;;;;;5054306;28;20536;-48
2021/11/17 03:06:29;;;;;;;65.55;31.95;;;;;;;;;;5054084;28;20033;-49
2021/11/17 03:08:55;;;;;;;50.65;29.15;;;;;;;;;;5054211;28;20025;-49
2021/11/17 03:11:37;;;;;;;51.97;29.52;;;;;;;;;;5054162;28;20032;-48
2021/11/17 03:14:21;;;;;;;46.92;28.13;;;;;;;;;;5054151;28;20026;-49
2021/11/17 03:16:53;;;;;;;54.90;30.23;;;;;;;;;;5054283;28;20421;-48
2021/11/17 03:19:41;;;;;;;52.80;27.92;;;;;;;;;;5053789;28;20021;-49
2021/11/17 03:22:25;;;;;;;61.33;31.95;;;;;;;;;;5053006;28;20068;-48
2021/11/17 03:24:51;;;;;;;57.92;31.83;;;;;;;;;;5053815;28;20035;-48
2021/11/17 03:27:48;;;;;;;59.13;30.80;;;;;;;;;;5053821;28;20024;-47
2021/11/17 03:30:24;;;;;;;53.83;29.15;;;;;;;;;;5011781;28;20057;-48
2021/11/17 03:32:59;;;;;;;59.60;30.40;;;;;;;;;;5011850;28;20045;-49
2021/11/17 03:35:57;;;;;;;49.28;29.30;;;;;;;;;;5011967;28;20512;-49
2021/11/17 03:38:23;;;;;;;53.78;28.08;;;;;;;;;;4953588;29;20049;-48
2021/11/17 03:40:49;;;;;;;47.55;28.38;;;;;;;;;;4953384;29;20053;-49
2021/11/17 03:43:15;;;;;;;50.67;28.90;;;;;;;;;;4953414;29;20055;-48
2021/11/17 03:45:50;;;;;;;56.03;29.20;;;;;;;;;;4953393;29;20030;-48
2021/11/17 03:48:31;;;;;;;49.60;29.70;;;;;;;;;;4953255;29;20054;-49
2021/11/17 03:50:57;;;;;;;;;;;;;;;;;;4953425;29;20152;-50
2021/11/17 03:53:41;;;;;;;52.63;28.48;;;;;;;;;;4953016;29;19934;-48
2021/11/17 03:56:36;;;;;;;50.15;28.08;;;;;;;;;;4953313;29;20534;-47
2021/11/17 03:59:21;;;;;;;49.88;26.92;;;;;;;;;;4952889;29;20039;-48
2021/11/17 04:02:08;;;;;;;51.13;28.50;;;;;;;;;;4953104;29;20039;-48
2021/11/17 04:04:40;;;;;;;55.47;29.58;;;;;;;;;;4952992;29;20094;-49
2021/11/17 04:07:12;;;;;;;67.18;31.17;;;;;;;;;;4978562;28;20042;-48
2021/11/17 04:09:41;;;;;;;55.05;29.15;;;;;;;;;;4991770;28;20498;-49
2021/11/17 04:12:11;;;;;;;57.88;29.33;;;;;;;;;;4991746;28;20062;-48
2021/11/17 04:14:37;;;;;;;49.83;30.30;;;;;;;;;;5037261;28;20104;-48
2021/11/17 04:17:06;;;;;;;54.50;32.15;;;;;;;;;;5052850;28;20029;-48
2021/11/17 04:19:32;;;;;;;54.92;30.25;;;;;;;;;;5052877;28;20024;-48
2021/11/17 04:22:10;;;;;;;53.60;30.48;;;;;;;;;;5052858;28;20035;-48
2021/11/17 04:24:52;;;;;;;49.60;27.65;;;;;;;;;;5052887;28;20111;-48
2021/11/17 04:27:36;;;;;;;51.65;29.58;;;;;;;;;;5052951;28;20164;-48
2021/11/17 04:30:05;;;;;;;53.88;28.23;;;;;;;;;;5052957;28;20453;-47
2021/11/17 04:32:42;;;;;;;47.70;28.02;;;;;;;;;;5052731;28;20099;-49
2021/11/17 04:35:31;;;;;;;51.50;28.23;;;;;;;;;;5052730;28;20457;-48
2021/11/17 04:38:08;;;;;;;60.67;29.13;;;;;;;;;;5047168;28;20033;-49
2021/11/17 04:40:45;;;;;;;52.75;28.48;;;;;;;;;;5051705;28;20040;-48
2021/11/17 04:43:15;;;;;;;53.88;30.38;;;;;;;;;;5052538;28;20465;-48
2021/11/17 04:45:53;;;;;;;53.58;30.33;;;;;;;;;;5052606;28;20047;-49
2021/11/17 04:48:35;;;;;;;53.90;30.73;;;;;;;;;;5052811;28;20082;-48
2021/11/17 04:51:25;;;;;;;54.33;29.52;;;;;;;;;;5052204;28;20098;-48
2021/11/17 04:54:11;;;;;;;56.28;30.80;;;;;;;;;;5052593;28;20420;-49
2021/11/17 04:56:56;;;;;;;58.20;31.90;;;;;;;;;;5045337;28;20098;-49
2021/11/17 04:59:40;;;;;;;53.00;30.42;;;;;;;;;;5052676;28;20369;-48
2021/11/17 05:02:19;;;;;;;63.60;32.30;;;;;;;;;;5052419;28;20104;-48
2021/11/17 05:04:58;;;;;;;68.45;35.30;;;;;;;;;;5052345;28;20029;-49
2021/11/17 05:07:43;;;;;;;62.88;32.08;;;;;;;;;;5052511;28;20021;-50
2021/11/17 05:10:32;;;;;;;60.53;33.72;;;;;;;;;;5052431;28;20025;-49
2021/11/17 05:13:09;;;;;;;53.50;31.80;;;;;;;;;;5052253;28;20036;-49
2021/11/17 05:15:42;;;;;;;54.55;31.05;;;;;;;;;;5052486;28;20142;-48
2021/11/17 05:18:26;;;;;;;55.50;33.03;;;;;;;;;;5052300;28;20048;-48
2021/11/17 05:20:55;;;;;;;58.85;32.45;;;;;;;;;;5052114;28;20025;-48
2021/11/17 05:23:28;;;;;;;52.08;31.27;;;;;;;;;;5052065;28;20025;-48
2021/11/17 05:26:00;;;;;;;58.80;31.45;;;;;;;;;;5052060;28;20381;-49
2021/11/17 05:28:35;;;;;;;58.42;32.90;;;;;;;;;;5052663;28;20032;-48
2021/11/17 05:31:01;;;;;;;57.80;32.08;;;;;;;;;;5052296;28;20362;-49
2021/11/17 05:33:39;;;;;;;69.78;36.22;;;;;;;;;;5051972;28;20045;-49
2021/11/17 05:36:23;;;;;;;61.97;33.45;;;;;;;;;;5052011;28;20017;-49
2021/11/17 05:39:08;;;;;;;65.07;35.25;;;;;;;;;;5052083;28;20048;-49
2021/11/17 05:41:44;;;;;;;59.75;33.78;;;;;;;;;;5052246;28;20163;-50
2021/11/17 05:44:10;;;;;;;68.20;34.90;;;;;;;;;;5053122;28;20487;-49
2021/11/17 05:46:42;;;;;;;62.60;34.28;;;;;;;;;;5055675;28;20032;-49
2021/11/17 05:49:08;;;;;;;;;;;;;;;;;;5056155;28;20487;-48
2021/11/17 05:51:54;;;;;;;69.95;37.92;;;;;;;;;;5055298;28;19917;-48
2021/11/17 05:54:24;;;;;;;64.97;35.78;;;;;;;;;;5048291;28;20045;-48
2021/11/17 05:56:58;;;;;;;74.78;40.28;;;;;;;;;;5055627;28;20025;-48
2021/11/17 05:59:31;;;;;;;78.22;41.60;;;;;;;;;;5055360;28;20025;-46
2021/11/17 06:02:06;;;;;;;76.65;39.65;;;;;;;;;;5055115;28;20029;-48
2021/11/17 06:04:35;;;;;;;77.72;41.92;;;;;;;;;;5055524;28;20032;-48
2021/11/17 06:07:01;;;;;;;80.43;43.60;;;;;;;;;;5055170;28;20031;-49
2021/11/17 06:09:27;;;;;;;75.63;39.58;;;;;;;;;;5055320;28;20131;-48
2021/11/17 06:12:01;;;;;;;68.00;36.50;;;;;;;;;;5055058;28;20017;-48
2021/11/17 06:14:31;;;;;;;68.75;35.08;;;;;;;;;;5055297;28;20087;-48
2021/11/17 06:17:02;;;;;;;59.88;32.00;;;;;;;;;;5055146;28;20017;-48
2021/11/17 06:19:29;;;;;;;67.00;35.35;;;;;;;;;;5055113;28;20029;-48
2021/11/17 06:21:56;;;;;;;62.47;33.38;;;;;;;;;;5054925;28;20029;-47
2021/11/17 06:24:23;;;;;;;61.42;34.65;;;;;;;;;;5055164;28;20025;-48
2021/11/17 06:26:50;;;;;;;73.05;38.15;;;;;;;;;;5054896;28;20037;-47
2021/11/17 06:29:18;;;;;;;83.57;43.47;;;;;;;;;;5054835;28;20025;-49
2021/11/17 06:31:44;;;;;;;64.25;37.58;;;;;;;;;;5054848;28;20044;-48
2021/11/17 06:34:23;;;;;;;58.10;35.03;;;;;;;;;;5054583;28;20040;-54
2021/11/17 06:36:49;;;;;;;56.08;31.45;;;;;;;;;;5054635;28;20033;-49
2021/11/17 06:39:18;;;;;;;52.25;31.08;;;;;;;;;;5054597;28;20029;-49
2021/11/17 06:41:44;;;;;;;54.80;31.38;;;;;;;;;;5054656;28;20024;-49
2021/11/17 06:44:10;;;;;;;51.75;31.02;;;;;;;;;;5054668;28;20351;-48
2021/11/17 06:46:36;;;;;;;56.20;30.92;;;;;;;;;;5054534;28;20025;-49
2021/11/17 06:49:04;;;;;;;49.50;30.40;;;;;;;;;;5054535;28;20025;-49
2021/11/17 06:51:30;;;;;;;54.20;31.63;;;;;;;;;;5054081;28;20107;-48
2021/11/17 06:53:57;;;;;;;54.42;34.88;;;;;;;;;;5054240;28;20051;-49
2021/11/17 06:56:23;;;;;;;59.63;35.28;;;;;;;;;;5053244;28;20424;-49
2021/11/17 06:58:49;;;;;;;74.32;39.45;;;;;;;;;;5054214;28;20029;-48
2021/11/17 07:01:15;;;;;;;83.75;44.63;;;;;;;;;;5054228;28;20020;-49
2021/11/17 07:03:41;;;;;;;67.43;40.47;;;;;;;;;;5054165;28;20449;-48
2021/11/17 07:06:08;;;;;;;82.68;47.97;;;;;;;;;;5052698;28;20028;-51
2021/11/17 07:08:34;;;;;;;88.47;45.38;;;;;;;;;;5054114;28;20044;-49
2021/11/17 07:11:00;;;;;;;73.25;42.53;;;;;;;;;;5054257;28;20723;-48
2021/11/17 07:13:27;;;;;;;72.75;40.35;;;;;;;;;;5053938;28;20041;-49
2021/11/17 07:15:53;;;;;;;83.70;43.20;;;;;;;;;;5053951;28;20147;-49
2021/11/17 07:18:19;;;;;;;78.53;42.88;;;;;;;;;;5054082;28;20033;-48
2021/11/17 07:20:46;;;;;;;79.72;40.70;;;;;;;;;;5053891;28;20385;-49
2021/11/17 07:23:13;;;;;;;76.20;38.83;;;;;;;;;;5053855;28;20396;-49
2021/11/17 07:25:39;;;;;;;60.03;35.17;;;;;;;;;;5053780;28;20079;-48
2021/11/17 07:28:06;;;;;;;54.92;34.65;;;;;;;;;;5053727;28;20025;-49
2021/11/17 07:30:34;;;;;;;57.60;31.17;;;;;;;;;;5053969;28;20532;-49
2021/11/17 07:33:02;;;;;;;49.42;30.92;;;;;;;;;;5053566;28;20029;-49
2021/11/17 07:35:29;;;;;;;42.25;28.10;;;;;;;;;;5053789;28;20381;-48
2021/11/17 07:38:01;;;;;;;48.20;29.20;;;;;;;;;;5053704;28;20017;-49
2021/11/17 07:40:28;;;;;;;44.55;29.58;;;;;;;;;;5053847;28;20017;-50
2021/11/17 07:42:55;;;;;;;46.65;29.83;;;;;;;;;;5053941;28;20353;-50
2021/11/17 07:45:21;;;;;;;49.13;30.00;;;;;;;;;;5053501;28;20067;-49
2021/11/17 07:47:47;;;;;;;39.20;27.30;;;;;;;;;;5053622;28;20031;-50
2021/11/17 07:50:14;;;;;;;40.38;26.70;;;;;;;;;;5053247;28;20025;-49
2021/11/17 07:52:43;;;;;;;42.75;26.38;;;;;;;;;;5053070;28;20376;-50
2021/11/17 07:55:10;;;;;;;38.50;24.98;;;;;;;;;;5053493;28;20017;-50
2021/11/17 07:57:38;;;;;;;35.65;23.63;;;;;;;;;;5053497;28;20493;-49
2021/11/17 08:00:06;;;;;;;37.00;25.20;;;;;;;;;;5053498;28;20373;-49
2021/11/17 08:02:32;;;;;;;33.63;23.20;;;;;;;;;;5053301;28;20024;-49
2021/11/17 08:04:58;;;;;;;33.25;23.67;;;;;;;;;;5053250;28;20107;-50
2021/11/17 08:07:24;;;;;;;35.08;23.58;;;;;;;;;;5053084;28;20021;-50
2021/11/17 08:09:51;;;;;;;27.42;19.80;;;;;;;;;;5053173;28;20021;-50
2021/11/17 08:12:18;;;;;;;27.98;20.35;;;;;;;;;;5053453;28;20439;-50
2021/11/17 08:14:44;;;;;;;33.67;21.15;;;;;;;;;;5053320;28;20492;-50
2021/11/17 08:17:10;;;;;;;31.92;21.33;;;;;;;;;;5053137;28;20476;-50
2021/11/17 08:19:36;;;;;;;46.65;23.27;;;;;;;;;;5053152;28;20029;-50
2021/11/17 08:22:06;;;;;;;29.92;22.00;;;;;;;;;;5053065;28;20032;-50
2021/11/17 08:24:33;;;;;;;27.48;20.50;;;;;;;;;;5053180;28;20074;-49
2021/11/17 08:26:59;;;;;;;32.83;19.92;;;;;;;;;;5053001;28;20033;-50
2021/11/17 08:29:27;;;;;;;26.85;19.58;;;;;;;;;;5051768;28;20036;-50
2021/11/17 08:31:53;;;;;;;28.08;20.85;;;;;;;;;;5053028;28;20505;-49
2021/11/17 08:34:19;;;;;;;28.70;21.10;;;;;;;;;;5052936;28;20036;-50
2021/11/17 08:36:47;;;;;;;34.95;22.38;;;;;;;;;;5052937;28;20036;-50
2021/11/17 08:39:16;;;;;;;32.25;22.10;;;;;;;;;;5052799;28;20025;-50
2021/11/17 08:41:43;;;;;;;27.38;21.38;;;;;;;;;;5052851;28;20104;-50
2021/11/17 08:44:14;;;;;;;38.10;23.42;;;;;;;;;;5053080;28;20033;-50
2021/11/17 08:46:40;;;;;;;37.13;22.05;;;;;;;;;;5053092;28;20102;-49
2021/11/17 08:49:09;;;;;;;44.00;26.42;;;;;;;;;;5052748;28;20060;-49
2021/11/17 08:51:38;;;;;;;37.08;23.98;;;;;;;;;;5052641;28;20041;-49
2021/11/17 08:54:04;;;;;;;41.53;25.45;;;;;;;;;;5052721;28;20033;-49
2021/11/17 08:56:33;;;;;;;42.53;27.20;;;;;;;;;;5053172;28;20092;-49
2021/11/17 08:58:59;;;;;;;59.70;29.20;;;;;;;;;;5052723;28;20044;-50
2021/11/17 09:01:26;;;;;;;41.53;26.63;;;;;;;;;;5052879;28;20036;-50
2021/11/17 09:03:52;;;;;;;39.78;24.70;;;;;;;;;;5052543;28;20116;-51
2021/11/17 09:06:18;;;;;;;36.88;23.58;;;;;;;;;;5052517;28;20028;-48
2021/11/17 09:08:44;;;;;;;36.25;23.63;;;;;;;;;;5052458;28;20029;-49
2021/11/17 09:11:16;;;;;;;40.58;24.80;;;;;;;;;;5052602;28;20017;-48
2021/11/17 09:13:42;;;;;;;41.95;26.95;;;;;;;;;;5052418;28;20029;-48
2021/11/17 09:16:09;;;;;;;43.20;27.92;;;;;;;;;;5052263;28;20104;-50
2021/11/17 09:18:36;;;;;;;41.55;27.30;;;;;;;;;;5052482;28;20025;-49
2021/11/17 09:21:05;;;;;;;38.65;24.58;;;;;;;;;;5056072;28;20029;-49
2021/11/17 09:23:31;;;;;;;42.75;25.88;;;;;;;;;;5056117;28;20036;-49
2021/11/17 09:25:59;;;;;;;39.17;24.88;;;;;;;;;;5056123;28;20017;-50
2021/11/17 09:28:25;;;;;;;36.90;24.70;;;;;;;;;;5056279;28;20057;-49
2021/11/17 09:30:52;;;;;;;38.05;24.00;;;;;;;;;;5056203;28;20379;-48
2021/11/17 09:33:20;;;;;;;50.47;25.65;;;;;;;;;;5056072;28;20024;-50
2021/11/17 09:35:53;;;;;;;39.88;25.30;;;;;;;;;;5056158;28;20430;-49
2021/11/17 09:38:20;;;;;;;38.33;23.88;;;;;;;;;;5055993;28;20025;-48
2021/11/17 09:40:52;;;;;;;39.70;25.80;;;;;;;;;;5055863;28;20469;-48
2021/11/17 09:43:20;;;;;;;36.67;23.45;;;;;;;;;;5055873;28;20052;-47
2021/11/17 09:45:47;;;;;;;39.65;25.90;;;;;;;;;;5055898;28;20079;-49
2021/11/17 09:48:14;;;;;;;35.80;24.45;;;;;;;;;;5055876;28;20021;-48
2021/11/17 09:50:43;;;;;;;36.10;24.38;;;;;;;;;;5055426;28;20064;-48
2021/11/17 09:53:29;;;;;;;60.22;37.03;;;;;;;;;;5055695;28;20029;-49
2021/11/17 09:56:01;;;;;;;49.38;30.08;;;;;;;;;;5055718;28;20039;-48
2021/11/17 09:58:30;;;;;;;49.13;29.17;;;;;;;;;;5055799;28;20104;-46
2021/11/17 10:01:05;;;;;;;32.92;20.13;;;;;;;;;;5055596;28;20017;-49
2021/11/17 10:03:35;;;;;;;32.72;20.33;;;;;;;;;;5055506;28;20079;-48
2021/11/17 10:11:57;;;;;;;28.20;18.25;;;;;;;;;;5055574;28;20028;-48
2021/11/17 10:14:26;;;;;;;25.02;16.40;;;;;;;;;;5055231;28;20045;-48
2021/11/17 10:16:52;;;;;;;27.30;17.42;;;;;;;;;;5055237;28;20017;-51
2021/11/17 10:19:23;;;;;;;25.88;16.88;;;;;;;;;;5055318;28;20025;-48
2021/11/17 10:21:57;;;;;;;24.03;16.30;;;;;;;;;;5055207;28;20100;-49
2021/11/17 10:24:38;;;;;;;26.08;16.95;;;;;;;;;;5055131;28;20037;-48
2021/11/17 10:27:04;;;;;;;27.65;16.52;;;;;;;;;;5055283;28;20053;-50
2021/11/17 10:29:38;;;;;;;27.50;17.10;;;;;;;;;;5053492;28;20029;-47
2021/11/17 10:32:19;;;;;;;25.52;16.75;;;;;;;;;;5055217;28;20028;-50
2021/11/17 10:35:12;;;;;;;27.23;18.00;;;;;;;;;;5055117;28;20058;-50
2021/11/17 10:37:41;;;;;;;26.38;16.75;;;;;;;;;;5054960;28;20439;-51
2021/11/17 10:40:22;;;;;;;29.35;17.08;;;;;;;;;;5054979;28;20029;-51
2021/11/17 10:42:58;;;;;;;24.73;16.17;;;;;;;;;;5054805;28;20029;-50
2021/11/17 10:45:28;;;;;;;29.58;15.68;;;;;;;;;;5054714;28;20483;-49
2021/11/17 10:47:55;;;;;;;23.83;16.10;;;;;;;;;;5054762;28;20036;-50
2021/11/17 10:50:26;;;;;;;25.85;16.58;;;;;;;;;;5054698;28;20100;-50
2021/11/17 10:53:04;;;;;;;25.83;15.65;;;;;;;;;;5054371;28;20056;-51
2021/11/17 10:55:32;;;;;;;22.13;15.18;;;;;;;;;;5054732;28;20077;-50
2021/11/17 10:58:01;;;;;;;23.25;15.43;;;;;;;;;;5054657;28;20032;-49
2021/11/17 11:00:31;;;;;;;23.35;14.95;;;;;;;;;;5054602;28;20082;-50
2021/11/17 11:02:58;;;;;;;21.02;14.30;;;;;;;;;;5054583;28;20032;-50
2021/11/17 11:05:27;;;;;;;22.23;15.20;;;;;;;;;;5054627;28;20028;-50
2021/11/17 11:08:00;;;;;;;28.58;16.10;;;;;;;;;;5054466;28;20036;-49
2021/11/17 11:10:41;;;;;;;25.58;16.40;;;;;;;;;;5054413;28;20029;-50
2021/11/17 11:13:12;;;;;;;30.87;16.27;;;;;;;;;;5054431;28;20087;-50
2021/11/17 11:15:38;;;;;;;;;;;;;;;;;;5054801;28;20376;-50
2021/11/17 11:18:04;;;;;;;29.33;18.35;;;;;;;;;;5053357;28;19905;-48
2021/11/17 11:20:35;;;;;;;32.92;19.50;;;;;;;;;;5053943;28;20060;-47
2021/11/17 11:23:07;;;;;;;29.70;17.00;;;;;;;;;;5054074;28;20100;-48
2021/11/17 11:25:36;;;;;;;32.35;20.75;;;;;;;;;;5054127;28;20468;-48
2021/11/17 11:28:29;;;;;;;42.88;25.55;;;;;;;;;;5054297;28;20029;-48
2021/11/17 11:31:06;;;;;;;51.15;27.55;;;;;;;;;;5052236;28;20041;-47
2021/11/17 11:33:48;;;;;;;42.28;24.15;;;;;;;;;;5053891;28;20035;-46
2021/11/17 11:36:14;;;;;;;49.97;28.05;;;;;;;;;;5053679;28;20021;-48
2021/11/17 11:38:45;;;;;;;51.03;26.15;;;;;;;;;;5054025;28;20078;-46
2021/11/17 11:41:32;;;;;;;35.00;21.47;;;;;;;;;;5053825;28;20028;-45
2021/11/17 11:44:20;;;;;;;52.08;29.75;;;;;;;;;;5053752;28;20559;-42
2021/11/17 11:46:47;;;;;;;46.42;27.08;;;;;;;;;;5053451;28;20009;-48
2021/11/17 11:49:43;;;;;;;59.65;32.30;;;;;;;;;;5053675;28;20421;-48
2021/11/17 11:52:11;;;;;;;41.22;22.85;;;;;;;;;;5011712;28;20049;-50
2021/11/17 11:54:57;;;;;;;29.90;17.52;;;;;;;;;;5011532;28;20038;-48
2021/11/17 11:57:33;;;;;;;29.02;18.45;;;;;;;;;;5011690;28;20041;-48
2021/11/17 12:00:09;;;;;;;24.10;16.40;;;;;;;;;;5011666;28;20577;-48
2021/11/17 12:02:38;;;;;;;31.27;18.08;;;;;;;;;;5011714;28;20048;-49
2021/11/17 12:05:07;;;;;;;28.17;17.92;;;;;;;;;;5011553;28;20037;-50
2021/11/17 12:07:39;;;;;;;34.78;21.35;;;;;;;;;;5011703;28;20486;-49
2021/11/17 12:10:11;;;;;;;26.48;16.75;;;;;;;;;;5011591;28;20045;-48
2021/11/17 12:12:39;;;;;;;37.10;24.27;;;;;;;;;;4994786;28;20096;-48
2021/11/17 12:15:11;;;;;;;29.40;18.27;;;;;;;;;;5011435;28;20049;-50
2021/11/17 12:17:37;;;;;;;24.77;18.05;;;;;;;;;;5011245;28;20026;-50
2021/11/17 12:20:24;;;;;;;25.75;17.30;;;;;;;;;;5011469;28;20401;-49
2021/11/17 12:22:52;;;;;;;25.60;16.45;;;;;;;;;;5011439;28;20071;-49
2021/11/17 12:25:23;;;;;;;24.70;15.13;;;;;;;;;;5011253;28;20037;-50
2021/11/17 12:27:49;;;;;;;;;;;;;;;;;;5020181;28;20041;-50
2021/11/17 12:30:36;;;;;;;24.65;16.02;;;;;;;;;;5053009;28;19951;-50
2021/11/17 12:33:20;;;;;;;22.52;14.82;;;;;;;;;;5053068;28;20020;-51
2021/11/17 12:36:07;;;;;;;25.75;16.45;;;;;;;;;;5052973;28;20079;-50
2021/11/17 12:38:37;;;;;;;25.55;16.45;;;;;;;;;;5052882;28;20052;-50
2021/11/17 12:41:13;;;;;;;28.15;16.85;;;;;;;;;;5053177;28;20025;-50
2021/11/17 12:43:41;;;;;;;29.52;17.58;;;;;;;;;;5052859;28;20100;-51
2021/11/17 12:46:07;;;;;;;27.05;17.02;;;;;;;;;;5053086;28;20021;-50
2021/11/17 12:48:33;;;;;;;41.85;21.15;;;;;;;;;;5053052;28;20456;-50
2021/11/17 12:51:05;;;;;;;32.30;19.98;;;;;;;;;;5052867;28;20524;-50
2021/11/17 12:53:33;;;;;;;30.17;17.88;;;;;;;;;;5054702;28;20033;-49
2021/11/17 12:56:04;;;;;;;37.25;22.70;;;;;;;;;;5056878;28;20031;-50
2021/11/17 12:58:34;;;;;;;34.72;17.67;;;;;;;;;;5055799;28;20428;-50
2021/11/17 13:01:18;;;;;;;54.35;24.65;;;;;;;;;;5056781;28;20499;-51
2021/11/17 13:03:50;;;;;;;24.55;16.73;;;;;;;;;;5056947;28;20024;-51
2021/11/17 13:06:20;;;;;;;29.98;19.77;;;;;;;;;;5056622;28;20082;-51
2021/11/17 13:08:46;;;;;;;28.92;17.70;;;;;;;;;;5056684;28;20028;-52
2021/11/17 13:11:20;;;;;;;31.50;18.10;;;;;;;;;;5056747;28;20064;-51
2021/11/17 13:13:46;;;;;;;26.55;18.83;;;;;;;;;;5056502;28;20025;-51
2021/11/17 13:16:20;;;;;;;35.00;21.67;;;;;;;;;;5056587;28;20021;-50
2021/11/17 13:18:48;;;;;;;24.77;15.20;;;;;;;;;;5056450;28;20490;-51
2021/11/17 13:21:26;;;;;;;34.53;20.85;;;;;;;;;;5056672;28;20377;-49
2021/11/17 13:23:52;;;;;;;30.50;18.83;;;;;;;;;;5056358;28;20055;-51
2021/11/17 13:26:37;;;;;;;28.15;17.23;;;;;;;;;;5056442;28;20465;-51
2021/11/17 13:29:24;;;;;;;32.33;19.85;;;;;;;;;;5056494;28;20032;-51
2021/11/17 13:31:54;;;;;;;30.65;18.90;;;;;;;;;;5056531;28;20033;-50
2021/11/17 13:34:27;;;;;;;29.38;17.98;;;;;;;;;;5056320;28;20037;-51
2021/11/17 13:36:53;;;;;;;33.63;17.48;;;;;;;;;;5056388;28;20078;-51
2021/11/17 13:39:21;;;;;;;30.17;17.95;;;;;;;;;;5056107;28;20025;-50
2021/11/17 13:41:51;;;;;;;29.95;19.08;;;;;;;;;;5056076;28;20025;-50
2021/11/17 13:44:20;;;;;;;21.67;15.73;;;;;;;;;;5056203;28;20024;-51
2021/11/17 13:47:00;;;;;;;22.42;16.05;;;;;;;;;;5056059;28;20465;-51
2021/11/17 13:49:27;;;;;;;26.08;17.45;;;;;;;;;;5055934;28;20115;-52
2021/11/17 13:51:53;;;;;;;27.30;18.52;;;;;;;;;;5055586;28;20494;-51
2021/11/17 13:54:20;;;;;;;31.65;18.60;;;;;;;;;;5055761;28;20086;-51
2021/11/17 13:56:46;;;;;;;30.95;19.08;;;;;;;;;;5055788;28;20021;-51
2021/11/17 13:59:14;;;;;;;31.15;17.70;;;;;;;;;;5055893;28;20025;-51
2021/11/17 14:01:41;;;;;;;39.78;22.27;;;;;;;;;;5055886;28;20024;-51
2021/11/17 14:04:07;;;;;;;75.10;36.97;;;;;;;;;;5055621;28;20032;-50
2021/11/17 14:06:33;;;;;;;68.38;34.45;;;;;;;;;;5055223;28;20025;-50
2021/11/17 14:08:59;;;;;;;60.90;32.78;;;;;;;;;;5055660;28;20032;-50
2021/11/17 14:11:27;;;;;;;44.63;26.35;;;;;;;;;;5055756;28;20408;-50
2021/11/17 14:13:53;;;;;;;56.00;29.27;;;;;;;;;;5055344;28;20032;-50
2021/11/17 14:16:19;;;;;;;49.25;26.63;;;;;;;;;;5054201;28;20025;-51
2021/11/17 14:18:49;;;;;;;47.13;27.65;;;;;;;;;;5055551;28;20074;-50
2021/11/17 14:21:15;;;;;;;62.13;33.95;;;;;;;;;;5055685;28;20393;-51
2021/11/17 14:23:41;;;;;;;77.05;41.28;;;;;;;;;;5055288;28;20021;-51
2021/11/17 14:26:09;;;;;;;62.10;33.55;;;;;;;;;;5055573;28;20437;-50
2021/11/17 14:28:38;;;;;;;74.43;36.75;;;;;;;;;;5055389;28;20017;-50
2021/11/17 14:31:10;;;;;;;101.88;49.25;;;;;;;;;;5055477;28;20123;-51
2021/11/17 14:33:39;;;;;;;;;;;;;;;;;;5055837;28;20025;-50
2021/11/17 14:36:10;;;;;;;64.78;36.25;;;;;;;;;;5055321;28;20357;-50
2021/11/17 14:38:37;;;;;;;67.25;37.80;;;;;;;;;;5055292;28;20487;-50
2021/11/17 14:41:03;;;;;;;82.47;41.28;;;;;;;;;;5055246;28;20021;-50
2021/11/17 14:43:30;;;;;;;79.95;43.17;;;;;;;;;;5055174;28;20025;-50
2021/11/17 14:45:56;;;;;;;79.95;42.97;;;;;;;;;;5055154;28;20028;-50
2021/11/17 14:48:23;;;;;;;86.32;43.47;;;;;;;;;;5054899;28;20099;-50
2021/11/17 14:50:51;;;;;;;84.00;44.70;;;;;;;;;;5054785;28;20041;-50
2021/11/17 14:53:17;;;;;;;76.80;42.03;;;;;;;;;;5055168;28;20029;-50
2021/11/17 14:55:44;;;;;;;99.28;52.45;;;;;;;;;;5054522;28;20029;-49
2021/11/17 14:58:11;;;;;;;105.85;57.80;;;;;;;;;;5054858;28;20029;-50
2021/11/17 15:00:43;;;;;;;128.88;67.88;;;;;;;;;;5055008;28;20438;-50
2021/11/17 15:03:09;;;;;;;108.75;59.50;;;;;;;;;;5054483;28;20028;-50
2021/11/17 15:05:35;;;;;;;122.13;62.47;;;;;;;;;;5054459;28;20029;-50
2021/11/17 15:08:02;;;;;;;103.28;56.67;;;;;;;;;;5054705;28;20076;-50
2021/11/17 15:10:28;;;;;;;127.30;68.60;;;;;;;;;;5053254;28;20021;-50
2021/11/17 15:12:54;;;;;;;218.70;72.28;;;;;;;;;;5053615;28;20196;-49
2021/11/17 15:15:23;;;;;;;142.93;73.07;;;;;;;;;;5050870;28;20033;-49
2021/11/17 15:17:51;;;;;;;142.55;76.53;;;;;;;;;;5051848;28;20052;-46
2021/11/17 15:20:22;;;;;;;194.77;99.65;;;;;;;;;;5054085;28;20025;-45
2021/11/17 15:22:49;;;;;;;198.93;105.40;;;;;;;;;;5054001;28;20031;-52
2021/11/17 15:25:22;;;;;;;197.07;97.82;;;;;;;;;;5053995;28;20437;-50
2021/11/17 15:27:52;;;;;;;126.35;67.10;;;;;;;;;;5053942;28;20021;-49
2021/11/17 15:30:21;;;;;;;122.13;65.10;;;;;;;;;;5054102;28;20044;-49
2021/11/17 15:32:53;;;;;;;110.45;61.92;;;;;;;;;;5053916;28;20013;-49
2021/11/17 15:35:20;;;;;;;105.22;58.92;;;;;;;;;;5053731;28;20099;-49
2021/11/17 15:37:48;;;;;;;122.43;62.63;;;;;;;;;;5053788;28;20478;-49
2021/11/17 15:40:16;;;;;;;151.55;71.38;;;;;;;;;;5053789;28;20025;-49
2021/11/17 15:42:43;;;;;;;106.15;51.00;;;;;;;;;;5052069;28;20529;-48
2021/11/17 15:45:09;;;;;;;111.43;54.08;;;;;;;;;;5024877;28;20039;-48
2021/11/17 15:47:35;;;;;;;140.38;65.75;;;;;;;;;;5022918;28;20025;-48
2021/11/17 15:50:02;;;;;;;178.32;77.47;;;;;;;;;;5027740;28;20112;-48
2021/11/17 15:52:28;;;;;;;212.77;85.82;;;;;;;;;;5028180;28;20545;-48
2021/11/17 15:54:54;;;;;;;241.68;99.88;;;;;;;;;;5030898;28;20501;-48
2021/11/17 15:57:20;;;;;;;219.82;85.43;;;;;;;;;;5028747;28;20051;-48
2021/11/17 15:59:47;;;;;;;204.98;80.50;;;;;;;;;;5028642;28;20031;-48
2021/11/17 16:02:14;;;;;;;172.20;71.40;;;;;;;;;;5028231;28;20025;-48
2021/11/17 16:04:41;;;;;;;106.97;47.22;;;;;;;;;;5028391;28;20068;-49
2021/11/17 16:07:19;;;;;;;75.63;37.17;;;;;;;;;;5027874;28;20029;-48
2021/11/17 16:09:49;;;;;;;60.22;33.53;;;;;;;;;;5025375;28;20083;-49
2021/11/17 16:12:16;;;;;;;65.63;34.25;;;;;;;;;;5023000;28;20090;-48
2021/11/17 16:14:42;;;;;;;74.22;40.15;;;;;;;;;;5023425;28;20389;-48
2021/11/17 16:17:09;;;;;;;125.75;52.92;;;;;;;;;;5022237;28;20036;-48
2021/11/17 16:19:38;;;;;;;150.45;64.70;;;;;;;;;;5022305;28;20409;-48
2021/11/17 16:22:31;;;;;;;157.75;65.50;;;;;;;;;;5022171;28;20021;-48
2021/11/17 16:27:42;;;;;;;119.03;53.13;;;;;;;;;;5023600;28;20075;-48
2021/11/17 16:30:11;;;;;;;120.38;51.90;;;;;;;;;;5022381;28;20025;-49
2021/11/17 16:32:38;;;;;;;142.30;58.38;;;;;;;;;;5022014;28;20410;-48
2021/11/17 16:35:04;;;;;;;110.68;54.17;;;;;;;;;;5022180;28;20041;-51
2021/11/17 16:37:30;;;;;;;129.70;69.00;;;;;;;;;;5021928;28;20026;-47
2021/11/17 16:39:59;;;;;;;130.00;66.88;;;;;;;;;;5021993;28;20036;-47
2021/11/17 16:42:27;;;;;;;106.85;54.30;;;;;;;;;;5022947;28;20306;-47
2021/11/17 16:44:54;;;;;;;76.82;40.72;;;;;;;;;;5022688;28;20025;-47
2021/11/17 16:47:20;;;;;;;71.40;39.65;;;;;;;;;;5021826;28;20033;-47
2021/11/17 16:49:47;;;;;;;71.82;37.72;;;;;;;;;;5021395;28;20536;-47
2021/11/17 16:52:13;;;;;;;80.47;42.17;;;;;;;;;;5027660;28;20188;-48
2021/11/17 16:54:46;;;;;;;72.85;37.45;;;;;;;;;;5025257;28;20040;-47
2021/11/17 16:57:12;;;;;;;60.20;32.30;;;;;;;;;;5021808;28;20148;-48
2021/11/17 16:59:39;;;;;;;65.55;32.78;;;;;;;;;;5021650;28;20395;-48
2021/11/17 17:02:06;;;;;;;49.70;28.08;;;;;;;;;;5023171;28;20439;-48
2021/11/17 17:04:32;;;;;;;43.15;27.42;;;;;;;;;;5021626;28;20503;-48
2021/11/17 17:06:58;;;;;;;48.45;28.30;;;;;;;;;;5021325;28;20512;-50
2021/11/17 17:09:29;;;;;;;50.42;29.23;;;;;;;;;;5021834;28;20068;-49
2021/11/17 17:11:55;;;;;;;56.95;33.40;;;;;;;;;;5022647;28;20355;-50
2021/11/17 17:14:21;;;;;;;63.50;35.50;;;;;;;;;;5022826;28;20029;-50